Weather at Antalya International Airport

Public forecast

Using degrees Celsius for public forecast. Weather courtesy of forecast.io.

Current aviation weather report (METAR) for Antalya International Airport

2024/04/24 15:50 (retrieved 23 minutes ago)

LTAI 241550Z 18006KT 9999 FEW030 SCT120 BKN180 27/09 Q1009 NOSIG RMK RWY18C VRB06KT RWY36R 18006KT RWY18L 20005KT

Aviation forecast (TAF) for Antalya International Airport

2024/04/24 12:03 (retrieved 4 hours ago)

TAF LTAI 241040Z 2412/2512 19010KT 9999 SCT030 BKN100 BECMG 2415/2418 34006KT BECMG 2500/2504 BKN030 BKN100 BECMG 2507/2510 18010KT